createdAt,value
2023-08-10T00:02:05.272Z,88.60
2023-08-10T00:04:33.674Z,88.24
2023-08-10T00:07:05.855Z,88.24
2023-08-10T00:09:34.169Z,88.89
2023-08-10T00:12:03.390Z,88.31
2023-08-10T00:14:31.736Z,89.02
2023-08-10T00:17:00.301Z,89.06
2023-08-10T00:19:29.328Z,88.70
2023-08-10T00:22:00.098Z,88.79
2023-08-10T00:24:30.637Z,89.39
2023-08-10T00:26:59.102Z,90.50
2023-08-10T00:29:27.670Z,89.88
2023-08-10T00:31:56.139Z,90.16
2023-08-10T00:34:24.994Z,90.11
2023-08-10T00:36:53.455Z,90.45
2023-08-10T00:39:21.992Z,90.91
2023-08-10T00:41:52.328Z,91.49
2023-08-10T00:44:20.574Z,92.71
2023-08-10T00:46:51.830Z,93.65
2023-08-10T00:49:20.787Z,93.38
2023-08-10T00:51:50.991Z,93.27
2023-08-10T00:54:19.280Z,91.62
2023-08-10T00:56:48.228Z,90.70
2023-08-10T00:59:18.755Z,90.64
2023-08-10T01:01:47.700Z,90.91
2023-08-10T01:04:16.750Z,91.64
2023-08-10T01:06:55.691Z,91.28
2023-08-10T01:09:30.094Z,92.66
2023-08-10T01:12:06.079Z,92.69
2023-08-10T01:14:42.744Z,92.30
2023-08-10T01:17:24.060Z,92.14
2023-08-10T01:19:54.868Z,92.95
2023-08-10T01:22:28.952Z,94.39
2023-08-10T01:25:03.245Z,93.27
2023-08-10T01:27:33.880Z,93.91
2023-08-10T01:30:03.660Z,94.12
2023-08-10T01:32:34.244Z,94.50
2023-08-10T01:35:06.692Z,95.05
2023-08-10T01:37:36.106Z,95.05
2023-08-10T01:40:09.126Z,95.87
2023-08-10T01:42:39.226Z,95.02
2023-08-10T01:45:09.181Z,94.63
2023-08-10T01:47:42.654Z,93.96
2023-08-10T01:50:11.721Z,93.66
2023-08-10T01:52:48.837Z,94.76
2023-08-10T01:55:19.418Z,92.61
2023-08-10T01:57:49.111Z,93.65
2023-08-10T02:00:17.709Z,93.32
2023-08-10T02:02:47.659Z,92.81
2023-08-10T02:05:17.205Z,93.44
2023-08-10T02:07:50.153Z,95.86
2023-08-10T02:10:25.038Z,95.53
2023-08-10T02:12:53.479Z,96.72
2023-08-10T02:15:21.856Z,96.44
2023-08-10T02:17:51.051Z,97.34
2023-08-10T02:20:19.329Z,97.76
2023-08-10T02:22:51.627Z,97.13
2023-08-10T02:25:23.619Z,96.10
2023-08-10T02:27:53.484Z,95.82
2023-08-10T02:37:14.526Z,95.71
2023-08-10T02:39:43.040Z,95.19
2023-08-10T02:42:12.868Z,95.76
2023-08-10T02:44:41.407Z,95.36
2023-08-10T02:47:09.964Z,95.08
2023-08-10T02:49:38.209Z,94.73
2023-08-10T02:52:07.238Z,94.63
2023-08-10T02:54:36.140Z,95.17
2023-08-10T02:57:04.856Z,94.94
2023-08-10T02:59:34.852Z,94.76
2023-08-10T03:02:04.495Z,94.78
2023-08-10T03:04:33.342Z,93.02
2023-08-10T03:07:02.734Z,91.82
2023-08-10T03:09:31.187Z,91.15
2023-08-10T03:11:59.733Z,90.75
2023-08-10T03:14:27.989Z,90.88
2023-08-10T03:16:57.893Z,90.76
2023-08-10T03:19:26.277Z,90.47
2023-08-10T03:21:54.863Z,90.01
2023-08-10T03:24:23.339Z,89.41
2023-08-10T03:26:52.180Z,89.78
2023-08-10T03:29:20.628Z,89.07
2023-08-10T03:31:49.157Z,88.96
2023-08-10T03:34:18.767Z,88.96
2023-08-10T03:36:47.382Z,88.86
2023-08-10T03:39:15.623Z,88.50
2023-08-10T03:41:44.273Z,87.69
2023-08-10T03:44:12.901Z,87.22
2023-08-10T03:46:41.482Z,87.49
2023-08-10T03:49:10.071Z,86.89
2023-08-10T03:51:40.063Z,85.64
2023-08-10T03:54:08.503Z,85.39
2023-08-10T03:56:37.865Z,85.10
2023-08-10T03:59:06.442Z,85.02
2023-08-10T04:01:35.382Z,85.03
2023-08-10T04:04:05.269Z,84.94
2023-08-10T04:06:34.111Z,84.69
2023-08-10T04:09:05.840Z,84.50
2023-08-10T04:11:37.066Z,84.68
2023-08-10T04:14:05.630Z,84.61
2023-08-10T04:16:34.524Z,84.26
2023-08-10T04:19:02.980Z,83.64
2023-08-10T04:21:31.450Z,83.88
2023-08-10T04:24:00.133Z,82.74
2023-08-10T04:26:30.072Z,82.77
2023-08-10T04:28:58.706Z,82.66
2023-08-10T04:31:27.253Z,82.36
2023-08-10T04:33:55.643Z,81.81
2023-08-10T04:36:24.090Z,81.94
2023-08-10T04:38:53.659Z,81.43
2023-08-10T04:41:22.209Z,81.99
2023-08-10T04:43:52.027Z,81.42
2023-08-10T04:46:20.691Z,81.29
2023-08-10T04:48:49.130Z,81.44
2023-08-10T04:51:17.765Z,81.47
2023-08-10T04:53:46.274Z,81.27
2023-08-10T04:56:17.458Z,80.92
2023-08-10T04:58:46.881Z,80.28
2023-08-10T05:01:17.637Z,80.28
2023-08-10T05:03:45.834Z,80.35
2023-08-10T05:06:14.395Z,79.67
2023-08-10T05:08:42.866Z,79.80
2023-08-10T05:11:11.919Z,78.96
2023-08-10T05:13:40.410Z,78.77
2023-08-10T05:16:09.410Z,77.80
2023-08-10T05:18:38.989Z,77.69
2023-08-10T05:21:07.599Z,76.99
2023-08-10T05:23:36.706Z,77.13
2023-08-10T05:26:05.271Z,77.09
2023-08-10T05:28:33.728Z,76.31
2023-08-10T05:31:02.436Z,75.79
2023-08-10T05:33:31.153Z,74.72
2023-08-10T05:36:01.124Z,74.42
2023-08-10T05:38:29.466Z,74.23
2023-08-10T05:40:58.259Z,73.88
2023-08-10T05:43:26.478Z,72.89
2023-08-10T05:45:55.198Z,73.12
2023-08-10T05:48:24.121Z,72.92
2023-08-10T05:50:52.859Z,72.87
2023-08-10T05:53:22.435Z,72.31
2023-08-10T05:55:52.398Z,72.59
2023-08-10T05:58:20.672Z,72.57
2023-08-10T06:00:49.555Z,72.96
2023-08-10T06:03:18.112Z,72.49
2023-08-10T06:05:48.157Z,71.91
2023-08-10T06:08:16.367Z,72.14
2023-08-10T06:10:50.427Z,72.43
2023-08-10T06:13:19.417Z,71.93
2023-08-10T06:15:48.726Z,71.54
2023-08-10T06:18:17.759Z,71.62
2023-08-10T06:20:46.421Z,71.36
2023-08-10T06:23:14.825Z,71.15
2023-08-10T06:25:43.752Z,71.27
2023-08-10T06:28:13.854Z,71.57
2023-08-10T06:30:44.950Z,71.51
2023-08-10T06:33:13.851Z,71.76
2023-08-10T06:35:42.398Z,72.02
2023-08-10T06:38:10.893Z,71.97
2023-08-10T06:40:39.469Z,72.33
2023-08-10T06:43:07.671Z,71.70
2023-08-10T06:45:37.546Z,71.54
2023-08-10T06:48:06.573Z,71.49
2023-08-10T06:50:36.397Z,70.41
2023-08-10T06:53:04.877Z,70.83
2023-08-10T06:55:33.438Z,70.34
2023-08-10T06:58:02.365Z,69.91
2023-08-10T07:00:34.392Z,69.78
2023-08-10T07:03:10.520Z,69.78
2023-08-10T07:05:40.770Z,69.39
2023-08-10T07:08:13.469Z,69.52
2023-08-10T07:10:42.019Z,69.25
2023-08-10T07:13:14.107Z,68.83
2023-08-10T07:15:43.398Z,68.84
2023-08-10T07:18:14.002Z,69.15
2023-08-10T07:20:42.765Z,68.54
2023-08-10T07:23:12.589Z,68.45
2023-08-10T07:25:42.583Z,68.21
2023-08-10T07:28:10.819Z,68.16
2023-08-10T07:33:33.803Z,69.41
2023-08-10T07:36:02.533Z,69.24
2023-08-10T07:38:34.069Z,68.36
2023-08-10T07:41:05.763Z,68.10
2023-08-10T07:43:33.980Z,67.42
2023-08-10T07:46:02.540Z,65.57
2023-08-10T07:48:31.652Z,64.97
2023-08-10T07:51:01.759Z,64.00
2023-08-10T07:53:32.152Z,63.22
2023-08-10T07:56:01.377Z,61.85
2023-08-10T07:58:29.558Z,61.99
2023-08-10T08:00:58.395Z,61.41
2023-08-10T08:03:27.467Z,60.05
2023-08-10T08:05:56.223Z,60.17
2023-08-10T08:08:26.005Z,59.25
2023-08-10T08:10:54.626Z,59.46
2023-08-10T08:13:24.974Z,58.80
2023-08-10T08:15:53.485Z,58.78
2023-08-10T08:18:44.996Z,57.92
2023-08-10T08:21:15.034Z,58.52
2023-08-10T08:23:50.617Z,58.38
2023-08-10T08:26:25.085Z,59.18
2023-08-10T08:28:57.904Z,59.61
2023-08-10T08:31:27.036Z,59.28
2023-08-10T08:33:56.182Z,58.04
2023-08-10T08:36:26.807Z,57.52
2023-08-10T08:38:59.463Z,57.72
2023-08-10T08:41:33.586Z,56.48
2023-08-10T08:44:04.185Z,57.40
2023-08-10T08:46:34.784Z,57.30
2023-08-10T08:49:04.044Z,57.92
2023-08-10T08:51:34.102Z,57.91
2023-08-10T08:54:04.374Z,57.82
2023-08-10T08:56:36.869Z,57.58
2023-08-10T08:59:05.416Z,57.44
2023-08-10T09:01:35.797Z,57.61
2023-08-10T09:04:06.069Z,57.35
2023-08-10T09:06:34.783Z,56.96
2023-08-10T09:09:05.061Z,56.19
2023-08-10T09:11:33.837Z,54.82
2023-08-10T09:14:09.565Z,53.51
2023-08-10T09:16:39.517Z,52.70
2023-08-10T09:19:13.129Z,53.07
2023-08-10T09:21:41.871Z,52.88
2023-08-10T09:24:12.867Z,53.06
2023-08-10T09:26:43.639Z,53.16
2023-08-10T09:29:11.818Z,52.53
2023-08-10T09:31:47.259Z,51.29
2023-08-10T09:34:24.074Z,52.06
2023-08-10T09:36:59.965Z,51.69
2023-08-10T09:39:34.112Z,50.64
2023-08-10T09:42:09.117Z,50.15
2023-08-10T09:44:45.555Z,49.09
2023-08-10T09:47:14.744Z,47.97
2023-08-10T09:49:55.082Z,48.34
2023-08-10T09:52:28.737Z,48.07
2023-08-10T09:54:59.256Z,48.31
2023-08-10T09:57:32.699Z,48.04
2023-08-10T10:00:01.419Z,48.39
2023-08-10T10:02:30.070Z,48.39
2023-08-10T10:04:58.556Z,48.26
2023-08-10T10:07:30.986Z,48.02
2023-08-10T10:10:02.699Z,47.57
2023-08-10T10:12:37.014Z,46.95
2023-08-10T10:15:09.732Z,46.66
2023-08-10T10:17:44.460Z,47.40
2023-08-10T10:20:15.916Z,47.02
2023-08-10T10:22:44.596Z,46.34
2023-08-10T10:25:18.009Z,46.50
2023-08-10T10:27:51.312Z,45.42
2023-08-10T10:30:26.373Z,46.86
2023-08-10T10:32:54.986Z,45.75
2023-08-10T10:38:18.690Z,47.15
2023-08-10T10:40:52.592Z,47.11
2023-08-10T10:43:21.813Z,47.01
2023-08-10T10:45:50.369Z,46.97
2023-08-10T10:48:34.299Z,46.89
2023-08-10T10:51:06.085Z,48.57
2023-08-10T10:53:36.970Z,47.97
2023-08-10T10:56:08.996Z,47.59
2023-08-10T10:58:37.870Z,47.68
2023-08-10T11:01:08.281Z,48.00
2023-08-10T11:03:36.834Z,47.52
2023-08-10T11:11:52.378Z,47.57
2023-08-10T11:14:21.596Z,47.54
2023-08-10T11:16:50.376Z,47.31
2023-08-10T11:19:19.476Z,46.51
2023-08-10T11:21:49.785Z,46.53
2023-08-10T11:24:18.332Z,46.96
2023-08-10T11:26:47.505Z,46.28
2023-08-10T11:29:21.586Z,46.11
2023-08-10T11:31:53.735Z,45.56
2023-08-10T11:34:24.429Z,45.36
2023-08-10T11:37:00.306Z,45.79
2023-08-10T11:39:28.823Z,45.30
2023-08-10T11:41:58.417Z,44.75
2023-08-10T11:44:30.390Z,44.70
2023-08-10T11:47:00.235Z,44.61
2023-08-10T11:49:33.181Z,44.38
2023-08-10T11:52:06.781Z,45.41
2023-08-10T11:54:36.951Z,45.86
2023-08-10T11:57:14.132Z,44.84
2023-08-10T11:59:44.137Z,45.64
2023-08-10T12:02:17.167Z,45.26
2023-08-10T12:04:46.150Z,44.27
2023-08-10T12:07:23.844Z,43.24
2023-08-10T12:09:53.296Z,43.08
2023-08-10T12:12:21.388Z,44.63
2023-08-10T12:14:54.975Z,43.76
2023-08-10T12:17:23.491Z,43.94
2023-08-10T12:19:52.150Z,43.48
2023-08-10T12:22:20.428Z,43.90
2023-08-10T12:24:50.110Z,44.73
2023-08-10T12:27:18.379Z,44.78
2023-08-10T12:29:50.715Z,43.91
2023-08-10T12:32:23.139Z,43.52
2023-08-10T12:34:52.240Z,43.97
2023-08-10T12:37:26.266Z,43.42
2023-08-10T12:39:57.807Z,42.63
2023-08-10T12:42:26.551Z,41.87
2023-08-10T12:44:55.092Z,42.37
2023-08-10T12:47:25.306Z,41.81
2023-08-10T12:49:54.885Z,41.73
2023-08-10T12:52:23.831Z,40.66
2023-08-10T12:54:55.501Z,41.72
2023-08-10T12:57:25.032Z,41.35
2023-08-10T12:59:53.660Z,41.78
2023-08-10T13:02:32.965Z,42.18
2023-08-10T13:05:06.883Z,42.04
2023-08-10T13:07:35.988Z,42.08
2023-08-10T13:10:09.825Z,43.19
2023-08-10T13:12:38.247Z,43.12
2023-08-10T13:15:09.229Z,44.26
2023-08-10T13:17:38.739Z,43.68
2023-08-10T13:20:13.395Z,44.29
2023-08-10T13:22:41.631Z,43.59
2023-08-10T13:25:11.218Z,45.18
2023-08-10T13:27:41.896Z,45.16
2023-08-10T13:30:10.923Z,45.24
2023-08-10T13:32:40.481Z,44.90
2023-08-10T13:35:11.610Z,44.02
2023-08-10T13:37:42.856Z,44.47
2023-08-10T13:40:13.190Z,44.05
2023-08-10T13:42:41.811Z,44.90
2023-08-10T13:45:11.408Z,45.28
2023-08-10T13:47:40.232Z,45.02
2023-08-10T13:50:11.796Z,45.28
2023-08-10T13:52:40.626Z,46.19
2023-08-10T13:55:09.987Z,45.78
2023-08-10T13:57:39.664Z,46.34
2023-08-10T14:03:05.444Z,46.20
2023-08-10T14:05:37.814Z,45.91
2023-08-10T14:08:06.907Z,45.43
2023-08-10T14:10:35.728Z,45.42
2023-08-10T14:13:04.853Z,44.26
2023-08-10T14:15:33.647Z,44.09
2023-08-10T14:18:02.783Z,43.99
2023-08-10T14:20:32.805Z,43.74
2023-08-10T14:23:04.052Z,43.22
2023-08-10T14:25:35.235Z,43.83
2023-08-10T14:28:03.647Z,43.27
2023-08-10T14:30:32.502Z,43.22
2023-08-10T14:33:00.803Z,43.24
2023-08-10T14:35:29.444Z,42.89
2023-08-10T14:37:57.959Z,43.67
2023-08-10T14:40:27.965Z,43.35
2023-08-10T14:42:57.407Z,43.53
2023-08-10T14:45:25.930Z,43.96
2023-08-10T14:50:56.845Z,43.64
2023-08-10T14:53:28.338Z,42.79
2023-08-10T14:55:58.293Z,41.92
2023-08-10T14:58:31.456Z,43.62
2023-08-10T15:01:00.001Z,43.76
2023-08-10T15:03:28.411Z,43.75
2023-08-10T15:08:50.177Z,42.94
2023-08-10T15:11:20.323Z,42.84
2023-08-10T15:13:49.612Z,43.59
2023-08-10T15:16:17.977Z,43.93
2023-08-10T15:18:47.676Z,43.21
2023-08-10T15:21:16.203Z,43.54
2023-08-10T15:23:47.614Z,43.73
2023-08-10T15:26:16.475Z,44.95
2023-08-10T15:28:49.077Z,45.75
2023-08-10T15:31:19.983Z,46.24
2023-08-10T15:33:49.724Z,46.49
2023-08-10T15:36:18.311Z,46.15
2023-08-10T15:38:46.783Z,46.49
2023-08-10T15:41:15.300Z,47.15
2023-08-10T15:43:45.250Z,46.80
2023-08-10T15:46:19.195Z,47.78
2023-08-10T15:48:47.628Z,47.93
2023-08-10T15:51:16.288Z,47.91
2023-08-10T15:53:45.028Z,47.22
2023-08-10T15:56:14.330Z,46.73
2023-08-10T15:58:42.597Z,47.14
2023-08-10T16:01:12.561Z,47.70
2023-08-10T16:03:41.544Z,47.27
2023-08-10T16:06:10.509Z,47.60
2023-08-10T16:08:39.807Z,47.19
2023-08-10T16:11:09.252Z,47.43
2023-08-10T16:13:38.617Z,47.38
2023-08-10T16:16:08.390Z,48.22
2023-08-10T16:18:38.354Z,47.95
2023-08-10T16:21:11.034Z,48.15
2023-08-10T16:23:39.854Z,48.47
2023-08-10T16:26:08.516Z,49.22
2023-08-10T16:28:38.363Z,49.09
2023-08-10T16:31:15.156Z,49.18
2023-08-10T16:33:50.689Z,50.81
2023-08-10T16:36:24.910Z,49.91
2023-08-10T16:38:57.634Z,49.99
2023-08-10T16:41:31.645Z,50.51
2023-08-10T16:44:00.678Z,49.83
2023-08-10T16:46:30.717Z,50.12
2023-08-10T16:49:02.900Z,50.13
2023-08-10T16:51:32.884Z,50.75
2023-08-10T16:54:01.179Z,50.93
2023-08-10T16:56:30.564Z,50.97
2023-08-10T16:58:58.881Z,50.76
2023-08-10T17:01:28.347Z,50.88
2023-08-10T17:03:57.624Z,51.76
2023-08-10T17:06:29.336Z,51.30
2023-08-10T17:11:50.498Z,51.83
2023-08-10T17:26:03.700Z,51.90
2023-08-10T17:40:55.905Z,55.28
2023-08-10T17:43:26.399Z,56.03
2023-08-10T17:45:54.670Z,58.78
2023-08-10T17:48:24.338Z,58.39
2023-08-10T17:50:52.652Z,58.65
2023-08-10T17:53:21.449Z,61.20
2023-08-10T17:59:29.789Z,62.46
2023-08-10T18:05:49.612Z,62.67
2023-08-10T18:08:17.894Z,63.43
2023-08-10T18:10:51.897Z,62.84
2023-08-10T18:13:21.986Z,63.76
2023-08-10T18:15:50.665Z,62.84
2023-08-10T18:18:18.934Z,63.09
2023-08-10T18:20:47.900Z,62.90
2023-08-10T18:23:20.072Z,63.90
2023-08-10T18:25:48.641Z,66.00
2023-08-10T18:28:17.111Z,64.41
2023-08-10T18:30:48.720Z,64.61
2023-08-10T18:33:18.609Z,65.79
2023-08-10T18:35:49.404Z,65.38
2023-08-10T18:38:17.782Z,65.76
2023-08-10T18:40:46.775Z,66.44
2023-08-10T18:43:17.621Z,65.90
2023-08-10T18:45:47.576Z,65.59
2023-08-10T18:48:16.976Z,65.47
2023-08-10T18:50:45.636Z,66.13
2023-08-10T18:53:14.737Z,67.92
2023-08-10T18:55:51.723Z,67.70
2023-08-10T18:58:23.948Z,67.42
2023-08-10T19:00:58.915Z,67.76
2023-08-10T19:03:27.778Z,66.67
2023-08-10T19:05:56.362Z,67.66
2023-08-10T19:11:20.394Z,67.51
2023-08-10T19:13:49.923Z,68.80
2023-08-10T19:16:20.497Z,69.34
2023-08-10T19:18:50.122Z,68.32
2023-08-10T19:21:18.638Z,69.04
2023-08-10T19:23:50.534Z,68.42
2023-08-10T19:26:19.180Z,70.34
2023-08-10T19:28:54.234Z,69.14
2023-08-10T19:31:24.576Z,71.13
2023-08-10T19:33:54.815Z,69.94
2023-08-10T19:36:23.746Z,69.90
2023-08-10T19:38:52.003Z,69.74
2023-08-10T19:41:23.391Z,69.68
2023-08-10T19:43:52.370Z,70.47
2023-08-10T19:46:26.487Z,71.06
2023-08-10T19:48:56.100Z,70.69
2023-08-10T19:51:24.792Z,70.77
2023-08-10T19:53:55.701Z,71.30
2023-08-10T19:56:24.194Z,70.81
2023-08-10T19:58:54.462Z,71.21
2023-08-10T20:01:24.458Z,70.75
2023-08-10T20:03:53.057Z,71.44
2023-08-10T20:06:23.935Z,71.90
2023-08-10T20:08:52.510Z,72.47
2023-08-10T20:11:21.142Z,72.98
2023-08-10T20:13:49.468Z,72.78
2023-08-10T20:16:21.271Z,73.51
2023-08-10T20:18:51.296Z,74.71
2023-08-10T20:21:19.798Z,73.68
2023-08-10T20:23:49.649Z,74.67
2023-08-10T20:26:19.795Z,74.82
2023-08-10T20:28:50.173Z,74.74
2023-08-10T20:31:19.714Z,77.33
2023-08-10T20:33:50.833Z,75.87
2023-08-10T20:36:25.459Z,75.75
2023-08-10T20:38:53.906Z,76.15
2023-08-10T20:41:24.139Z,76.80
2023-08-10T20:43:52.425Z,77.24
2023-08-10T20:46:23.451Z,77.80
2023-08-10T20:48:53.443Z,77.14
2023-08-10T20:51:24.359Z,76.67
2023-08-10T20:53:53.884Z,76.85
2023-08-10T20:56:25.585Z,76.51
2023-08-10T20:58:53.829Z,77.05
2023-08-10T21:01:23.481Z,77.46
2023-08-10T21:03:53.761Z,78.10
2023-08-10T21:06:25.693Z,77.92
2023-08-10T21:08:53.992Z,78.01
2023-08-10T21:11:24.935Z,78.20
2023-08-10T21:13:53.201Z,78.82
2023-08-10T21:16:22.495Z,78.97
2023-08-10T21:18:50.767Z,79.49
2023-08-10T21:21:19.327Z,80.66
2023-08-10T21:23:52.856Z,80.23
2023-08-10T21:26:22.330Z,80.56
2023-08-10T21:28:50.644Z,80.12
2023-08-10T21:31:19.527Z,80.43
2023-08-10T21:33:50.048Z,80.50
2023-08-10T21:36:19.182Z,81.55
2023-08-10T21:38:49.285Z,80.75
2023-08-10T21:41:19.067Z,80.68
2023-08-10T21:43:47.410Z,79.83
2023-08-10T21:46:21.550Z,80.10
2023-08-10T21:48:49.900Z,80.47
2023-08-10T21:51:18.650Z,80.63
2023-08-10T21:53:48.316Z,79.65
2023-08-10T21:56:18.579Z,81.39
2023-08-10T21:58:48.194Z,81.27
2023-08-10T22:01:17.615Z,81.54
2023-08-10T22:03:48.349Z,81.14
2023-08-10T22:06:16.944Z,81.66
2023-08-10T22:08:45.776Z,81.54
2023-08-10T22:11:15.738Z,81.26
2023-08-10T22:13:45.510Z,81.83
2023-08-10T22:16:14.562Z,81.84
2023-08-10T22:18:42.900Z,81.95
2023-08-10T22:21:12.418Z,81.82
2023-08-10T22:23:40.678Z,82.30
2023-08-10T22:26:10.744Z,84.69
2023-08-10T22:28:40.387Z,86.84
2023-08-10T22:31:08.490Z,86.42
2023-08-10T22:33:36.719Z,86.08
2023-08-10T22:36:07.555Z,86.62
2023-08-10T22:38:35.750Z,86.26
2023-08-10T22:41:04.920Z,85.54
2023-08-10T22:43:33.261Z,85.80
2023-08-10T22:46:04.035Z,86.28
2023-08-10T22:48:35.030Z,86.89
2023-08-10T22:51:04.411Z,86.85
2023-08-10T22:53:32.721Z,87.33
2023-08-10T22:56:01.365Z,87.85
2023-08-10T22:58:29.628Z,86.77
2023-08-10T23:01:00.790Z,87.05
2023-08-10T23:03:30.533Z,87.94
2023-08-10T23:06:00.867Z,88.10
2023-08-10T23:08:29.522Z,87.97
2023-08-10T23:10:58.498Z,87.97
2023-08-10T23:13:26.779Z,88.05
2023-08-10T23:15:57.432Z,88.63
2023-08-10T23:18:25.744Z,87.64
2023-08-10T23:20:57.083Z,88.04
2023-08-10T23:23:25.253Z,88.49
2023-08-10T23:25:55.034Z,87.74
2023-08-10T23:28:23.962Z,86.98
2023-08-10T23:30:55.662Z,88.05
2023-08-10T23:33:24.932Z,87.49
2023-08-10T23:35:54.623Z,87.54
2023-08-10T23:38:26.478Z,87.91
2023-08-10T23:40:55.462Z,88.14
2023-08-10T23:43:23.649Z,86.43
2023-08-10T23:45:53.724Z,87.58
2023-08-10T23:48:22.790Z,87.47
2023-08-10T23:50:51.538Z,86.89
2023-08-10T23:53:19.830Z,87.23
2023-08-10T23:55:51.335Z,88.24
2023-08-10T23:58:37.422Z,88.04
